createdAt,value
2017-09-30T00:01:49.396Z,61.00
2017-09-30T00:04:18.619Z,61.80
2017-09-30T00:06:47.912Z,62.80
2017-09-30T00:09:17.383Z,61.40
2017-09-30T00:11:47.064Z,62.00
2017-09-30T00:14:16.466Z,56.30
2017-09-30T00:16:47.627Z,57.00
2017-09-30T00:19:16.836Z,57.00
2017-09-30T00:21:46.344Z,57.50
2017-09-30T00:24:15.833Z,57.40
2017-09-30T00:26:45.829Z,56.70
2017-09-30T00:29:15.096Z,56.70
2017-09-30T00:31:44.486Z,58.30
2017-09-30T00:34:13.745Z,58.70
2017-09-30T00:36:43.702Z,56.70
2017-09-30T00:39:13.260Z,56.70
2017-09-30T00:41:43.349Z,57.60
2017-09-30T00:44:12.502Z,57.50
2017-09-30T00:46:41.672Z,58.00
2017-09-30T00:49:11.896Z,59.00
2017-09-30T00:51:41.914Z,59.70
2017-09-30T00:54:12.460Z,60.20
2017-09-30T00:56:42.169Z,60.10
2017-09-30T00:59:12.830Z,60.00
2017-09-30T01:01:42.214Z,60.10
2017-09-30T01:04:11.365Z,60.20
2017-09-30T01:06:40.561Z,57.10
2017-09-30T01:09:09.869Z,58.30
2017-09-30T01:11:39.179Z,59.20
2017-09-30T01:14:08.805Z,61.00
2017-09-30T01:16:38.228Z,62.00
2017-09-30T01:19:07.675Z,64.30
2017-09-30T01:21:37.253Z,60.10
2017-09-30T01:24:06.464Z,60.50
2017-09-30T01:26:35.693Z,61.00
2017-09-30T01:29:08.589Z,55.90
2017-09-30T01:31:38.210Z,55.10
2017-09-30T01:34:07.305Z,52.00
2017-09-30T01:36:36.620Z,49.00
2017-09-30T01:39:06.257Z,46.10
2017-09-30T01:41:35.337Z,47.80
2017-09-30T01:44:05.000Z,46.50
2017-09-30T01:46:34.335Z,49.20
2017-09-30T01:49:03.484Z,45.50
2017-09-30T01:51:32.943Z,44.30
2017-09-30T01:54:02.521Z,45.70
2017-09-30T01:56:33.793Z,48.70
2017-09-30T01:59:03.131Z,46.80
2017-09-30T02:01:32.249Z,49.30
2017-09-30T02:04:01.299Z,47.30
2017-09-30T02:06:30.597Z,48.20
2017-09-30T02:09:00.294Z,44.10
2017-09-30T02:11:29.633Z,46.10
2017-09-30T02:13:59.346Z,42.80
2017-09-30T02:16:28.570Z,41.20
2017-09-30T02:18:58.045Z,40.50
2017-09-30T02:21:27.449Z,40.40
2017-09-30T02:23:56.509Z,40.90
2017-09-30T02:26:25.983Z,44.40
2017-09-30T02:28:57.193Z,44.70
2017-09-30T02:31:26.298Z,44.50
2017-09-30T02:33:55.438Z,40.00
2017-09-30T02:36:24.776Z,42.20
2017-09-30T02:38:54.177Z,41.20
2017-09-30T02:41:23.546Z,41.10
2017-09-30T02:43:52.917Z,44.40
2017-09-30T02:46:22.368Z,42.80
2017-09-30T02:48:52.025Z,45.00
2017-09-30T02:51:21.388Z,41.90
2017-09-30T02:53:50.813Z,42.60
2017-09-30T02:56:20.046Z,41.10
2017-09-30T02:58:50.830Z,41.40
2017-09-30T03:01:20.131Z,41.40
2017-09-30T03:03:49.457Z,41.40
2017-09-30T03:06:18.863Z,42.70
2017-09-30T03:08:48.076Z,40.90
2017-09-30T03:11:17.329Z,42.10
2017-09-30T03:13:46.710Z,45.20
2017-09-30T03:16:16.731Z,43.00
2017-09-30T03:18:46.291Z,43.00
2017-09-30T03:21:16.752Z,44.00
2017-09-30T03:23:47.825Z,43.70
2017-09-30T03:26:17.561Z,43.60
2017-09-30T03:28:46.793Z,42.70
2017-09-30T03:31:16.739Z,43.90
2017-09-30T03:33:46.134Z,43.80
2017-09-30T03:36:15.338Z,45.00
2017-09-30T03:38:44.713Z,45.10
2017-09-30T03:41:15.021Z,44.00
2017-09-30T03:43:44.453Z,43.90
2017-09-30T03:46:14.508Z,45.60
2017-09-30T03:48:44.757Z,47.40
2017-09-30T03:51:13.886Z,47.10
2017-09-30T03:53:44.101Z,48.10
2017-09-30T03:56:14.194Z,50.90
2017-09-30T03:58:43.447Z,50.80
2017-09-30T04:01:13.480Z,50.90
2017-09-30T04:03:42.798Z,51.50
2017-09-30T04:06:12.064Z,51.60
2017-09-30T04:08:41.240Z,52.70
2017-09-30T04:11:11.506Z,53.60
2017-09-30T04:13:41.019Z,53.60
2017-09-30T04:16:10.290Z,53.60
2017-09-30T04:18:39.557Z,54.70
2017-09-30T04:21:08.966Z,55.30
2017-09-30T04:23:38.589Z,55.50
2017-09-30T04:26:08.519Z,57.40
2017-09-30T04:28:38.095Z,57.40
2017-09-30T04:31:07.021Z,58.10
2017-09-30T04:33:36.262Z,58.90
2017-09-30T04:36:05.698Z,59.30
2017-09-30T04:38:35.743Z,59.10
2017-09-30T04:41:05.028Z,59.10
2017-09-30T04:43:34.347Z,59.60
2017-09-30T04:46:03.774Z,59.70
2017-09-30T04:48:33.010Z,59.90
2017-09-30T04:51:03.046Z,60.90
2017-09-30T04:53:33.220Z,60.30
2017-09-30T04:56:02.989Z,60.20
2017-09-30T04:58:32.581Z,60.30
2017-09-30T05:01:02.025Z,59.10
2017-09-30T05:03:33.451Z,60.50
2017-09-30T05:06:02.707Z,60.40
2017-09-30T05:08:32.021Z,61.80
2017-09-30T05:11:01.392Z,62.70
2017-09-30T05:13:30.694Z,63.00
2017-09-30T05:16:00.173Z,62.50
2017-09-30T05:18:29.687Z,62.90
2017-09-30T05:20:59.230Z,63.80
2017-09-30T05:23:28.347Z,63.30
2017-09-30T05:25:57.562Z,63.30
2017-09-30T05:28:27.110Z,63.20
2017-09-30T05:30:56.377Z,64.00
2017-09-30T05:33:26.583Z,64.90
2017-09-30T05:35:56.907Z,66.90
2017-09-30T05:38:27.022Z,67.60
2017-09-30T05:40:57.974Z,68.30
2017-09-30T05:43:27.214Z,68.30
2017-09-30T05:45:56.619Z,67.80
2017-09-30T05:48:25.801Z,68.50
2017-09-30T05:50:55.951Z,68.10
2017-09-30T05:53:25.199Z,68.80
2017-09-30T05:55:54.650Z,69.40
2017-09-30T05:58:23.779Z,70.00
2017-09-30T06:00:54.249Z,70.60
2017-09-30T06:03:23.528Z,70.40
2017-09-30T06:05:54.120Z,70.50
2017-09-30T06:08:23.616Z,70.40
2017-09-30T06:10:53.791Z,70.50
2017-09-30T06:13:23.236Z,70.50
2017-09-30T06:15:52.754Z,70.70
2017-09-30T06:18:22.005Z,70.80
2017-09-30T06:20:51.088Z,70.90
2017-09-30T06:23:20.562Z,71.30
2017-09-30T06:25:49.683Z,71.40
2017-09-30T06:28:19.214Z,72.20
2017-09-30T06:30:48.534Z,72.60
2017-09-30T06:33:18.035Z,73.60
2017-09-30T06:35:47.319Z,73.60
2017-09-30T06:38:16.688Z,74.60
2017-09-30T06:40:46.210Z,75.00
2017-09-30T06:43:15.118Z,74.90
2017-09-30T06:45:43.896Z,75.30
2017-09-30T06:48:12.748Z,74.30
2017-09-30T06:50:41.525Z,74.50
2017-09-30T06:53:10.297Z,74.80
2017-09-30T06:55:39.554Z,74.20
2017-09-30T06:58:08.944Z,74.20
2017-09-30T07:00:39.079Z,74.10
2017-09-30T07:03:08.299Z,74.00
2017-09-30T07:05:37.466Z,74.00
2017-09-30T07:08:07.536Z,74.80
2017-09-30T07:10:36.827Z,75.00
2017-09-30T07:13:06.129Z,74.40
2017-09-30T07:15:35.714Z,74.60
2017-09-30T07:18:04.943Z,74.50
2017-09-30T07:20:34.135Z,74.40
2017-09-30T07:23:03.385Z,74.30
2017-09-30T07:25:33.971Z,74.10
2017-09-30T07:28:03.237Z,74.30
2017-09-30T07:30:32.551Z,74.50
2017-09-30T07:33:01.777Z,74.00
2017-09-30T07:35:31.124Z,74.80
2017-09-30T07:38:00.420Z,75.00
2017-09-30T07:40:29.900Z,75.00
2017-09-30T07:42:59.129Z,75.10
2017-09-30T07:45:29.199Z,74.80
2017-09-30T07:47:58.469Z,74.80
2017-09-30T07:50:27.810Z,74.60
2017-09-30T07:52:57.259Z,75.00
2017-09-30T07:55:27.413Z,75.00
2017-09-30T07:57:56.915Z,75.00
2017-09-30T08:00:26.631Z,75.10
2017-09-30T08:02:57.467Z,75.10
2017-09-30T08:05:26.899Z,75.00
2017-09-30T08:07:57.027Z,75.00
2017-09-30T08:10:27.414Z,75.00
2017-09-30T08:12:57.455Z,75.20
2017-09-30T08:15:26.802Z,74.80
2017-09-30T08:17:55.973Z,74.60
2017-09-30T08:20:25.477Z,74.60
2017-09-30T08:22:54.677Z,74.80
2017-09-30T08:25:24.856Z,74.50
2017-09-30T08:27:54.274Z,74.50
2017-09-30T08:30:23.401Z,74.50
2017-09-30T08:32:52.619Z,74.00
2017-09-30T08:35:21.913Z,74.00
2017-09-30T08:37:51.910Z,74.10
2017-09-30T08:40:21.415Z,74.00
2017-09-30T08:42:50.820Z,73.90
2017-09-30T08:45:20.337Z,74.40
2017-09-30T08:47:49.533Z,75.10
2017-09-30T08:50:18.687Z,75.10
2017-09-30T08:52:49.052Z,75.20
2017-09-30T08:55:19.467Z,75.60
2017-09-30T08:57:48.763Z,75.60
2017-09-30T09:00:18.020Z,75.90
2017-09-30T09:02:47.352Z,76.50
2017-09-30T09:05:16.691Z,77.70
2017-09-30T09:07:45.810Z,79.00
2017-09-30T09:10:15.274Z,79.20
2017-09-30T09:12:45.233Z,79.60
2017-09-30T09:15:14.667Z,79.60
2017-09-30T09:17:43.890Z,79.10
2017-09-30T09:20:13.131Z,78.70
2017-09-30T09:22:42.194Z,78.70
2017-09-30T09:25:12.307Z,78.10
2017-09-30T09:27:41.546Z,78.00
2017-09-30T09:30:11.055Z,78.50
2017-09-30T09:32:40.142Z,78.70
2017-09-30T09:35:09.850Z,78.80
2017-09-30T09:37:39.382Z,78.80
2017-09-30T09:40:09.683Z,78.20
2017-09-30T09:42:39.040Z,78.20
2017-09-30T09:45:09.283Z,77.80
2017-09-30T09:47:39.469Z,77.60
2017-09-30T09:50:08.817Z,77.50
2017-09-30T09:52:38.805Z,76.80
2017-09-30T09:55:08.870Z,76.70
2017-09-30T09:57:37.966Z,76.70
2017-09-30T10:00:07.465Z,76.30
2017-09-30T10:02:37.467Z,76.30
2017-09-30T10:05:08.283Z,77.50
2017-09-30T10:07:37.908Z,77.40
2017-09-30T10:10:08.123Z,77.40
2017-09-30T10:12:38.064Z,76.60
2017-09-30T10:15:08.179Z,76.50
2017-09-30T10:17:38.171Z,76.70
2017-09-30T10:20:06.887Z,76.80
2017-09-30T10:22:36.098Z,77.20
2017-09-30T10:25:05.184Z,78.00
2017-09-30T10:27:34.556Z,78.40
2017-09-30T10:30:03.991Z,78.50
2017-09-30T10:32:33.520Z,78.80
2017-09-30T10:35:03.478Z,78.80
2017-09-30T10:37:32.931Z,78.80
2017-09-30T10:40:02.001Z,78.60
2017-09-30T10:42:31.333Z,78.80
2017-09-30T10:45:00.794Z,79.10
2017-09-30T10:47:30.656Z,79.00
2017-09-30T10:50:00.095Z,78.90
2017-09-30T10:52:29.375Z,79.10
2017-09-30T10:54:58.771Z,78.90
2017-09-30T10:57:28.756Z,78.40
2017-09-30T10:59:58.170Z,78.40
2017-09-30T11:02:27.344Z,77.60
2017-09-30T11:04:56.736Z,76.60
2017-09-30T11:07:26.844Z,77.60
2017-09-30T11:09:56.258Z,77.70
2017-09-30T11:12:26.366Z,77.10
2017-09-30T11:14:55.881Z,77.00
2017-09-30T11:17:26.005Z,77.00
2017-09-30T11:19:56.307Z,76.60
2017-09-30T11:22:25.449Z,76.60
2017-09-30T11:24:54.662Z,76.60
2017-09-30T11:27:23.871Z,76.30
2017-09-30T11:29:52.991Z,75.40
2017-09-30T11:32:22.197Z,75.40
2017-09-30T11:34:51.148Z,74.50
2017-09-30T11:37:20.250Z,74.30
2017-09-30T11:39:49.311Z,74.10
2017-09-30T11:42:18.871Z,74.00
2017-09-30T11:44:48.459Z,73.80
2017-09-30T11:47:17.544Z,74.50
2017-09-30T11:49:47.040Z,73.90
2017-09-30T11:52:16.646Z,74.00
2017-09-30T11:54:46.004Z,73.60
2017-09-30T11:57:15.294Z,73.30
2017-09-30T11:59:44.752Z,71.10
2017-09-30T12:02:14.094Z,71.80
2017-09-30T12:04:43.260Z,72.00
2017-09-30T12:07:12.514Z,71.70
2017-09-30T12:09:41.653Z,70.80
2017-09-30T12:12:10.918Z,70.90
2017-09-30T12:14:41.228Z,70.70
2017-09-30T12:17:11.107Z,70.70
2017-09-30T12:19:41.572Z,70.80
2017-09-30T12:22:10.889Z,70.40
2017-09-30T12:24:41.016Z,69.80
2017-09-30T12:27:10.180Z,69.50
2017-09-30T12:29:39.738Z,69.80
2017-09-30T12:32:08.890Z,69.90
2017-09-30T12:34:38.061Z,69.90
2017-09-30T12:37:07.422Z,69.70
2017-09-30T12:39:37.036Z,69.40
2017-09-30T12:42:06.465Z,69.30
2017-09-30T12:44:35.686Z,70.10
2017-09-30T12:47:05.071Z,70.30
2017-09-30T12:49:34.397Z,70.80
2017-09-30T12:52:03.775Z,70.20
2017-09-30T12:54:33.695Z,69.80
2017-09-30T12:57:02.752Z,68.50
2017-09-30T12:59:32.155Z,69.00
2017-09-30T13:02:01.462Z,69.30
2017-09-30T13:04:30.743Z,69.30
2017-09-30T13:06:59.895Z,68.60
2017-09-30T13:09:29.199Z,68.30
2017-09-30T13:11:58.556Z,68.20
2017-09-30T13:14:28.015Z,68.90
2017-09-30T13:16:57.283Z,68.30
2017-09-30T13:19:26.457Z,68.20
2017-09-30T13:21:56.535Z,68.50
2017-09-30T13:24:27.290Z,69.20
2017-09-30T13:26:56.683Z,68.20
2017-09-30T13:29:25.853Z,69.20
2017-09-30T13:31:55.359Z,69.60
2017-09-30T13:34:24.466Z,69.30
2017-09-30T13:36:53.834Z,69.10
2017-09-30T13:39:23.096Z,69.10
2017-09-30T13:41:52.279Z,68.90
2017-09-30T13:44:21.488Z,68.50
2017-09-30T13:46:51.243Z,68.90
2017-09-30T13:49:20.528Z,69.40
2017-09-30T13:51:49.875Z,69.40
2017-09-30T13:54:19.069Z,69.60
2017-09-30T13:56:48.371Z,69.30
2017-09-30T13:59:17.570Z,68.60
2017-09-30T14:01:46.754Z,68.90
2017-09-30T14:04:16.104Z,68.20
2017-09-30T14:06:45.980Z,68.50
2017-09-30T14:09:15.417Z,68.50
2017-09-30T14:11:44.921Z,68.90
2017-09-30T14:14:14.762Z,69.90
2017-09-30T14:16:43.888Z,69.80
2017-09-30T14:19:13.187Z,69.60
2017-09-30T14:21:42.817Z,68.90
2017-09-30T14:24:13.271Z,69.40
2017-09-30T14:26:43.281Z,69.10
2017-09-30T14:29:12.609Z,68.90
2017-09-30T14:31:41.835Z,68.20
2017-09-30T14:34:11.469Z,68.10
2017-09-30T14:36:41.141Z,68.40
2017-09-30T14:39:11.039Z,69.60
2017-09-30T14:41:40.393Z,69.10
2017-09-30T14:44:09.689Z,69.30
2017-09-30T14:46:38.858Z,69.30
2017-09-30T14:49:08.361Z,68.60
2017-09-30T14:51:37.668Z,68.00
2017-09-30T14:54:07.264Z,68.60
2017-09-30T14:56:36.549Z,67.60
2017-09-30T14:59:05.965Z,68.40
2017-09-30T15:01:35.520Z,68.40
2017-09-30T15:04:04.668Z,69.30
2017-09-30T15:06:35.264Z,68.40
2017-09-30T15:09:04.890Z,68.50
2017-09-30T15:11:34.262Z,67.50
2017-09-30T15:14:03.706Z,67.70
2017-09-30T15:16:33.301Z,68.40
2017-09-30T15:19:02.604Z,68.50
2017-09-30T15:21:31.857Z,68.20
2017-09-30T15:24:01.045Z,68.00
2017-09-30T15:26:31.014Z,68.60
2017-09-30T15:29:00.960Z,67.30
2017-09-30T15:31:30.324Z,67.00
2017-09-30T15:34:00.507Z,66.40
2017-09-30T15:36:29.662Z,66.30
2017-09-30T15:38:59.382Z,66.80
2017-09-30T15:41:28.736Z,66.40
2017-09-30T15:43:58.859Z,63.50
2017-09-30T15:46:27.959Z,63.50
2017-09-30T15:48:57.544Z,64.20
2017-09-30T15:51:26.967Z,65.30
2017-09-30T15:53:56.194Z,63.00
2017-09-30T15:56:25.314Z,64.40
2017-09-30T15:58:54.845Z,62.20
2017-09-30T16:01:24.091Z,65.90
2017-09-30T16:03:54.627Z,64.50
2017-09-30T16:06:24.208Z,64.40
2017-09-30T16:08:53.290Z,64.10
2017-09-30T16:11:22.827Z,62.90
2017-09-30T16:13:52.907Z,61.60
2017-09-30T16:16:22.906Z,61.50
2017-09-30T16:18:52.315Z,60.50
2017-09-30T16:21:21.651Z,59.90
2017-09-30T16:23:51.432Z,59.90
2017-09-30T16:26:20.911Z,59.70
2017-09-30T16:28:51.121Z,61.00
2017-09-30T16:31:20.755Z,59.30
2017-09-30T16:33:50.140Z,56.10
2017-09-30T16:36:19.544Z,53.00
2017-09-30T16:38:49.067Z,55.50
2017-09-30T16:41:18.367Z,53.20
2017-09-30T16:43:47.620Z,53.80
2017-09-30T16:46:16.739Z,50.80
2017-09-30T16:48:46.073Z,50.70
2017-09-30T16:51:15.606Z,53.10
2017-09-30T16:53:45.093Z,49.30
2017-09-30T16:56:15.728Z,50.80
2017-09-30T16:58:45.170Z,48.40
2017-09-30T17:01:15.194Z,48.70
2017-09-30T17:03:44.672Z,48.60
2017-09-30T17:06:14.921Z,49.60
2017-09-30T17:08:45.234Z,47.50
2017-09-30T17:11:14.538Z,47.50
2017-09-30T17:13:43.969Z,45.70
2017-09-30T17:16:13.360Z,46.80
2017-09-30T17:18:42.925Z,46.60
2017-09-30T17:21:12.128Z,45.70
2017-09-30T17:23:41.279Z,44.90
2017-09-30T17:26:10.659Z,47.20
2017-09-30T17:28:40.349Z,47.00
2017-09-30T17:31:10.518Z,48.70
2017-09-30T17:33:39.849Z,49.40
2017-09-30T17:36:09.497Z,48.50
2017-09-30T17:38:38.864Z,48.40
2017-09-30T17:41:08.530Z,51.40
2017-09-30T17:43:37.921Z,48.40
2017-09-30T17:46:07.312Z,50.10
2017-09-30T17:48:37.879Z,49.40
2017-09-30T17:51:07.083Z,49.40
2017-09-30T17:53:36.406Z,51.20
2017-09-30T17:56:05.741Z,50.30
2017-09-30T17:58:35.485Z,48.20
2017-09-30T18:01:05.131Z,48.10
2017-09-30T18:03:34.616Z,47.50
2017-09-30T18:06:04.019Z,47.80
2017-09-30T18:08:33.244Z,49.00
2017-09-30T18:11:02.265Z,47.90
2017-09-30T18:13:31.598Z,47.50
2017-09-30T18:16:00.996Z,47.50
2017-09-30T18:18:30.742Z,46.00
2017-09-30T18:20:59.968Z,49.10
2017-09-30T18:23:30.780Z,47.70
2017-09-30T18:26:00.136Z,48.00
2017-09-30T18:28:29.266Z,50.00
2017-09-30T18:30:59.319Z,52.10
2017-09-30T18:33:29.278Z,51.90
2017-09-30T18:35:58.631Z,51.10
2017-09-30T18:38:27.813Z,52.60
2017-09-30T18:40:57.086Z,49.60
2017-09-30T18:43:26.370Z,51.30
2017-09-30T18:45:56.015Z,49.60
2017-09-30T18:48:25.285Z,51.20
2017-09-30T18:50:54.462Z,51.00
2017-09-30T18:53:24.074Z,49.80
2017-09-30T18:55:53.369Z,48.90
2017-09-30T18:58:22.786Z,49.90
2017-09-30T19:00:52.059Z,49.40
2017-09-30T19:03:21.316Z,49.50
2017-09-30T19:05:51.391Z,49.40
2017-09-30T19:08:21.771Z,47.70
2017-09-30T19:10:51.030Z,47.70
2017-09-30T19:13:20.483Z,48.50
2017-09-30T19:15:49.889Z,51.80
2017-09-30T19:18:19.033Z,48.80
2017-09-30T19:20:48.498Z,48.60
2017-09-30T19:23:17.587Z,49.60
2017-09-30T19:25:46.613Z,47.90
2017-09-30T19:28:15.776Z,47.50
2017-09-30T19:30:45.157Z,47.80
2017-09-30T19:33:15.987Z,47.50
2017-09-30T19:35:46.445Z,47.40
2017-09-30T19:38:16.280Z,43.80
2017-09-30T19:40:46.641Z,44.30
2017-09-30T19:43:15.928Z,44.10
2017-09-30T19:45:45.394Z,42.30
2017-09-30T19:48:14.816Z,42.30
2017-09-30T19:50:44.014Z,43.10
2017-09-30T19:53:13.352Z,42.60
2017-09-30T19:55:42.547Z,41.60
2017-09-30T19:58:11.732Z,42.30
2017-09-30T20:00:40.892Z,44.90
2017-09-30T20:03:10.430Z,43.10
2017-09-30T20:05:39.880Z,42.90
2017-09-30T20:08:09.272Z,43.90
2017-09-30T20:10:38.740Z,42.30
2017-09-30T20:13:08.122Z,41.60
2017-09-30T20:15:37.507Z,42.90
2017-09-30T20:18:06.778Z,44.40
2017-09-30T20:20:36.279Z,45.40
2017-09-30T20:23:05.587Z,46.50
2017-09-30T20:25:34.790Z,43.90
2017-09-30T20:28:04.143Z,41.60
2017-09-30T20:30:34.213Z,43.50
2017-09-30T20:33:03.782Z,43.50
2017-09-30T20:35:33.232Z,41.70
2017-09-30T20:38:03.240Z,43.50
2017-09-30T20:40:32.513Z,41.40
2017-09-30T20:43:01.698Z,44.00
2017-09-30T20:45:30.930Z,44.80
2017-09-30T20:48:00.317Z,45.90
2017-09-30T20:50:29.823Z,43.20
2017-09-30T20:52:59.010Z,40.50
2017-09-30T20:55:28.051Z,43.60
2017-09-30T20:57:57.219Z,43.50
2017-09-30T21:00:26.552Z,45.20
2017-09-30T21:02:55.894Z,44.90
2017-09-30T21:05:26.070Z,48.70
2017-09-30T21:07:55.522Z,48.50
2017-09-30T21:10:24.974Z,48.00
2017-09-30T21:12:54.375Z,49.70
2017-09-30T21:15:23.574Z,48.10
2017-09-30T21:17:52.891Z,47.20
2017-09-30T21:20:22.213Z,51.90
2017-09-30T21:22:52.161Z,54.10
2017-09-30T21:25:21.382Z,53.90
2017-09-30T21:27:51.550Z,53.50
2017-09-30T21:30:20.923Z,48.20
2017-09-30T21:32:50.142Z,48.20
2017-09-30T21:35:19.381Z,45.20
2017-09-30T21:37:48.773Z,48.90
2017-09-30T21:40:18.831Z,46.10
2017-09-30T21:42:48.032Z,43.70
2017-09-30T21:45:17.595Z,42.80
2017-09-30T21:47:47.322Z,45.70
2017-09-30T21:50:16.676Z,40.70
2017-09-30T21:52:45.915Z,38.20
2017-09-30T21:55:15.147Z,46.30
2017-09-30T21:57:44.481Z,46.00
2017-09-30T22:00:13.721Z,45.90
2017-09-30T22:02:43.063Z,40.10
2017-09-30T22:05:12.307Z,41.30
2017-09-30T22:07:41.530Z,45.20
2017-09-30T22:10:11.046Z,44.50
2017-09-30T22:12:40.238Z,42.20
2017-09-30T22:15:09.690Z,40.40
2017-09-30T22:17:39.059Z,43.90
2017-09-30T22:20:08.193Z,42.10
2017-09-30T22:22:38.221Z,44.10
2017-09-30T22:25:08.525Z,42.90
2017-09-30T22:27:37.787Z,42.80
2017-09-30T22:30:07.074Z,40.60
2017-09-30T22:32:36.463Z,41.90
2017-09-30T22:35:06.383Z,42.20
2017-09-30T22:37:35.802Z,43.60
2017-09-30T22:40:04.834Z,44.10
2017-09-30T22:42:35.994Z,43.90
2017-09-30T22:45:06.348Z,44.20
2017-09-30T22:47:35.800Z,44.20
2017-09-30T22:50:05.092Z,44.00
2017-09-30T22:52:34.443Z,44.60
2017-09-30T22:55:04.573Z,43.00
2017-09-30T22:57:33.925Z,44.00
2017-09-30T23:00:03.406Z,44.10
2017-09-30T23:02:32.818Z,43.80
2017-09-30T23:05:02.112Z,44.40
2017-09-30T23:07:31.356Z,43.70
2017-09-30T23:10:01.505Z,42.00
2017-09-30T23:12:30.928Z,41.90
2017-09-30T23:15:00.386Z,42.20
2017-09-30T23:17:29.699Z,44.90
2017-09-30T23:19:59.135Z,44.10
2017-09-30T23:22:28.576Z,43.90
2017-09-30T23:24:57.911Z,44.00
2017-09-30T23:27:29.099Z,42.00
2017-09-30T23:29:58.798Z,42.00
2017-09-30T23:32:28.709Z,43.80
2017-09-30T23:34:59.167Z,40.60
2017-09-30T23:37:28.563Z,39.70
2017-09-30T23:39:57.843Z,38.90
2017-09-30T23:42:27.085Z,42.20
2017-09-30T23:44:57.665Z,39.90
2017-09-30T23:47:27.127Z,39.10
2017-09-30T23:49:56.598Z,35.60
2017-09-30T23:52:26.177Z,37.90
2017-09-30T23:54:55.667Z,39.00
2017-09-30T23:57:25.137Z,35.50
2017-09-30T23:59:54.341Z,35.60
